AWC973Y EGSS-EGKK
Flight info
| Callsign | AWC973Y |
|---|---|
| Flight time | 0h 27m |
| Altitude | 6000 |
| Route | DET DCT TIMBA |
| Aircraft | A320/M-SDE3FGHIRWY/LB1 |
Departure
| Time | 2026-05-07 12:32 |
|---|---|
| Airport | London Stansted Airport (EGSS) |
Arrival
| Time | 2026-05-07 12:59 |
|---|---|
| Airport | London Gatwick Airport (EGKK) |
| Time | Latitude | Longitude | Altitude | Speed | Heading |
|---|---|---|---|---|---|
| 2026-05-07 12:08 | 51.88036 | 0.22057 | 341 ft | 0 kts | 94° |
| 2026-05-07 12:23 | 51.88034 | 0.22086 | 337 ft | 3 kts | 98° |
| 2026-05-07 12:23 | 51.88032 | 0.22117 | 338 ft | 2 kts | 94° |
| 2026-05-07 12:23 | 51.88023 | 0.22138 | 337 ft | 3 kts | 147° |
| 2026-05-07 12:24 | 51.88006 | 0.22133 | 348 ft | 3 kts | 194° |
| 2026-05-07 12:24 | 51.87986 | 0.22123 | 346 ft | 3 kts | 197° |
| 2026-05-07 12:24 | 51.87966 | 0.22114 | 343 ft | 3 kts | 194° |
| 2026-05-07 12:24 | 51.87964 | 0.22113 | 343 ft | 0 kts | 194° |
| 2026-05-07 12:28 | 51.87962 | 0.22112 | 343 ft | 2 kts | 194° |
| 2026-05-07 12:28 | 51.87923 | 0.22094 | 345 ft | 9 kts | 195° |
| 2026-05-07 12:29 | 51.87835 | 0.22055 | 335 ft | 14 kts | 195° |
| 2026-05-07 12:29 | 51.87748 | 0.21957 | 338 ft | 14 kts | 224° |
| 2026-05-07 12:29 | 51.87654 | 0.21916 | 336 ft | 15 kts | 163° |
| 2026-05-07 12:29 | 51.87637 | 0.21925 | 334 ft | 0 kts | 163° |
| 2026-05-07 12:30 | 51.87620 | 0.21933 | 336 ft | 7 kts | 163° |
| 2026-05-07 12:30 | 51.87560 | 0.21964 | 338 ft | 11 kts | 160° |
| 2026-05-07 12:31 | 51.87568 | 0.22082 | 335 ft | 13 kts | 44° |
| 2026-05-07 12:31 | 51.87573 | 0.22090 | 335 ft | 1 kts | 43° |
| 2026-05-07 12:31 | 51.87626 | 0.22169 | 337 ft | 41 kts | 43° |
| 2026-05-07 12:31 | 51.88070 | 0.22846 | 337 ft | 129 kts | 42° |
| 2026-05-07 12:32 | 51.88828 | 0.23953 | 837 ft | 151 kts | 45° |
| 2026-05-07 12:32 | 51.89620 | 0.25124 | 1792 ft | 156 kts | 45° |
| 2026-05-07 12:32 | 51.90441 | 0.26362 | 2589 ft | 170 kts | 45° |
| 2026-05-07 12:32 | 51.91104 | 0.28074 | 3155 ft | 193 kts | 81° |
| 2026-05-07 12:33 | 51.90046 | 0.32053 | 4782 ft | 209 kts | 147° |
| 2026-05-07 12:33 | 51.88695 | 0.32802 | 5018 ft | 208 kts | 179° |
| 2026-05-07 12:33 | 51.87308 | 0.32273 | 5085 ft | 207 kts | 205° |
| 2026-05-07 12:34 | 51.85863 | 0.31143 | 5091 ft | 249 kts | 205° |
| 2026-05-07 12:34 | 51.84261 | 0.29915 | 5084 ft | 258 kts | 204° |
| 2026-05-07 12:34 | 51.82633 | 0.28681 | 5084 ft | 259 kts | 204° |
| 2026-05-07 12:34 | 51.81001 | 0.27451 | 5082 ft | 259 kts | 204° |
| 2026-05-07 12:35 | 51.79367 | 0.26222 | 5084 ft | 259 kts | 204° |
| 2026-05-07 12:35 | 51.77641 | 0.25359 | 5244 ft | 266 kts | 187° |
| 2026-05-07 12:35 | 51.75772 | 0.25313 | 5921 ft | 269 kts | 173° |
| 2026-05-07 12:35 | 51.73969 | 0.26090 | 6571 ft | 273 kts | 157° |
| 2026-05-07 12:36 | 51.72230 | 0.27425 | 6966 ft | 271 kts | 154° |
| 2026-05-07 12:36 | 51.70568 | 0.28742 | 7066 ft | 269 kts | 154° |
| 2026-05-07 12:36 | 51.68873 | 0.30095 | 7084 ft | 269 kts | 154° |
| 2026-05-07 12:36 | 51.67199 | 0.31435 | 7077 ft | 268 kts | 154° |
| 2026-05-07 12:37 | 51.65523 | 0.32765 | 7080 ft | 269 kts | 154° |
| 2026-05-07 12:37 | 51.63843 | 0.34081 | 7074 ft | 269 kts | 155° |
| 2026-05-07 12:37 | 51.62160 | 0.35396 | 7080 ft | 269 kts | 155° |
| 2026-05-07 12:37 | 51.60477 | 0.36709 | 7079 ft | 269 kts | 155° |
| 2026-05-07 12:38 | 51.58794 | 0.38018 | 7078 ft | 269 kts | 155° |
| 2026-05-07 12:38 | 51.57106 | 0.39331 | 7079 ft | 269 kts | 155° |
| 2026-05-07 12:38 | 51.55416 | 0.40643 | 7079 ft | 270 kts | 155° |
| 2026-05-07 12:38 | 51.53727 | 0.41956 | 7085 ft | 270 kts | 155° |
| 2026-05-07 12:39 | 51.52038 | 0.43273 | 7080 ft | 270 kts | 155° |
| 2026-05-07 12:39 | 51.50349 | 0.44587 | 7084 ft | 270 kts | 155° |
| 2026-05-07 12:39 | 51.48656 | 0.45898 | 7083 ft | 270 kts | 155° |
| 2026-05-07 12:39 | 51.46960 | 0.47193 | 7085 ft | 270 kts | 155° |
| 2026-05-07 12:40 | 51.45254 | 0.48488 | 7086 ft | 270 kts | 155° |
| 2026-05-07 12:40 | 51.43553 | 0.49774 | 7088 ft | 271 kts | 155° |
| 2026-05-07 12:40 | 51.41852 | 0.51062 | 7088 ft | 271 kts | 155° |
| 2026-05-07 12:40 | 51.40147 | 0.52355 | 7091 ft | 271 kts | 155° |
| 2026-05-07 12:41 | 51.38444 | 0.53643 | 7095 ft | 272 kts | 155° |
| 2026-05-07 12:41 | 51.36733 | 0.54935 | 6982 ft | 271 kts | 155° |
| 2026-05-07 12:41 | 51.35037 | 0.56216 | 6976 ft | 270 kts | 155° |
| 2026-05-07 12:41 | 51.33337 | 0.57500 | 6958 ft | 270 kts | 156° |
| 2026-05-07 12:42 | 51.31558 | 0.58383 | 6949 ft | 269 kts | 172° |
| 2026-05-07 12:42 | 51.29696 | 0.58352 | 6942 ft | 269 kts | 190° |
| 2026-05-07 12:42 | 51.27904 | 0.57366 | 6933 ft | 269 kts | 208° |
| 2026-05-07 12:42 | 51.26291 | 0.55846 | 6912 ft | 270 kts | 210° |
| 2026-05-07 12:43 | 51.24676 | 0.54319 | 6897 ft | 270 kts | 210° |
| 2026-05-07 12:43 | 51.23077 | 0.52815 | 6893 ft | 270 kts | 210° |
| 2026-05-07 12:43 | 51.21433 | 0.51273 | 6894 ft | 271 kts | 210° |
| 2026-05-07 12:43 | 51.19811 | 0.49755 | 6890 ft | 270 kts | 210° |
| 2026-05-07 12:44 | 51.18190 | 0.48236 | 6894 ft | 270 kts | 210° |
| 2026-05-07 12:44 | 51.16568 | 0.46714 | 6889 ft | 271 kts | 210° |
| 2026-05-07 12:44 | 51.14944 | 0.45195 | 6886 ft | 271 kts | 210° |
| 2026-05-07 12:44 | 51.13313 | 0.43671 | 6888 ft | 271 kts | 210° |
| 2026-05-07 12:45 | 51.11688 | 0.42150 | 6888 ft | 271 kts | 210° |
| 2026-05-07 12:45 | 51.10086 | 0.40648 | 6886 ft | 272 kts | 210° |
| 2026-05-07 12:45 | 51.08513 | 0.39171 | 6891 ft | 272 kts | 210° |
| 2026-05-07 12:45 | 51.06885 | 0.37648 | 6900 ft | 272 kts | 210° |
| 2026-05-07 12:46 | 51.05257 | 0.36125 | 6911 ft | 272 kts | 210° |
| 2026-05-07 12:46 | 51.03624 | 0.34601 | 6851 ft | 273 kts | 210° |
| 2026-05-07 12:46 | 51.01996 | 0.33085 | 6668 ft | 271 kts | 210° |
| 2026-05-07 12:46 | 51.00387 | 0.31591 | 6479 ft | 264 kts | 210° |
| 2026-05-07 12:47 | 50.98823 | 0.30141 | 6289 ft | 257 kts | 210° |
| 2026-05-07 12:47 | 50.97326 | 0.28660 | 6089 ft | 250 kts | 219° |
| 2026-05-07 12:47 | 50.96213 | 0.26608 | 5888 ft | 240 kts | 241° |
| 2026-05-07 12:47 | 50.95671 | 0.24193 | 5687 ft | 230 kts | 261° |
| 2026-05-07 12:48 | 50.95677 | 0.21706 | 5484 ft | 225 kts | 281° |
| 2026-05-07 12:48 | 50.96149 | 0.19370 | 5283 ft | 220 kts | 290° |
| 2026-05-07 12:48 | 50.96681 | 0.17121 | 5079 ft | 215 kts | 290° |
| 2026-05-07 12:48 | 50.97198 | 0.14918 | 4881 ft | 211 kts | 290° |
| 2026-05-07 12:49 | 50.97703 | 0.12761 | 4763 ft | 205 kts | 290° |
| 2026-05-07 12:49 | 50.98188 | 0.10682 | 4639 ft | 197 kts | 290° |
| 2026-05-07 12:49 | 50.98655 | 0.08674 | 4501 ft | 191 kts | 290° |
| 2026-05-07 12:49 | 50.99112 | 0.06700 | 4373 ft | 190 kts | 290° |
| 2026-05-07 12:50 | 50.99567 | 0.04740 | 4239 ft | 189 kts | 290° |
| 2026-05-07 12:50 | 51.00024 | 0.02782 | 4094 ft | 189 kts | 290° |
| 2026-05-07 12:50 | 51.00483 | 0.00807 | 3867 ft | 188 kts | 290° |
| 2026-05-07 12:50 | 51.00933 | -0.01134 | 3608 ft | 187 kts | 290° |
| 2026-05-07 12:51 | 51.01381 | -0.03064 | 3346 ft | 186 kts | 290° |
| 2026-05-07 12:51 | 51.01827 | -0.04988 | 3097 ft | 185 kts | 290° |
| 2026-05-07 12:51 | 51.02270 | -0.06910 | 3010 ft | 186 kts | 290° |
| 2026-05-07 12:51 | 51.02715 | -0.08838 | 3005 ft | 186 kts | 290° |
| 2026-05-07 12:52 | 51.03160 | -0.10772 | 3008 ft | 186 kts | 290° |
| 2026-05-07 12:52 | 51.03605 | -0.12704 | 3010 ft | 187 kts | 290° |
| 2026-05-07 12:52 | 51.03900 | -0.13986 | 3010 ft | 187 kts | 290° |
| 2026-05-07 12:52 | 51.04344 | -0.15921 | 2983 ft | 187 kts | 290° |
| 2026-05-07 12:53 | 51.04787 | -0.17858 | 2851 ft | 186 kts | 290° |
| 2026-05-07 12:53 | 51.05229 | -0.19784 | 2722 ft | 185 kts | 289° |
| 2026-05-07 12:53 | 51.05671 | -0.21706 | 2609 ft | 185 kts | 289° |
| 2026-05-07 12:53 | 51.06111 | -0.23627 | 2548 ft | 185 kts | 290° |
| 2026-05-07 12:54 | 51.06548 | -0.25533 | 2504 ft | 180 kts | 289° |
| 2026-05-07 12:54 | 51.06970 | -0.27382 | 2509 ft | 177 kts | 289° |
| 2026-05-07 12:54 | 51.07389 | -0.29211 | 2512 ft | 176 kts | 289° |
| 2026-05-07 12:54 | 51.07718 | -0.30596 | 2419 ft | 175 kts | 290° |
| 2026-05-07 12:55 | 51.08134 | -0.32407 | 2288 ft | 174 kts | 289° |
| 2026-05-07 12:55 | 51.08545 | -0.34213 | 2168 ft | 174 kts | 289° |
| 2026-05-07 12:55 | 51.08963 | -0.36017 | 2103 ft | 174 kts | 292° |
| 2026-05-07 12:55 | 51.09755 | -0.37433 | 2020 ft | 176 kts | 331° |
| 2026-05-07 12:56 | 51.10939 | -0.37728 | 2016 ft | 177 kts | 9° |
| 2026-05-07 12:56 | 51.12010 | -0.36869 | 2009 ft | 172 kts | 46° |
| 2026-05-07 12:56 | 51.12568 | -0.35243 | 1990 ft | 168 kts | 76° |
| 2026-05-07 12:56 | 51.12812 | -0.33492 | 1856 ft | 166 kts | 78° |
| 2026-05-07 12:57 | 51.13057 | -0.31703 | 1658 ft | 165 kts | 78° |
| 2026-05-07 12:57 | 51.13295 | -0.29985 | 1441 ft | 164 kts | 78° |
| 2026-05-07 12:57 | 51.13476 | -0.28645 | 1274 ft | 157 kts | 78° |
| 2026-05-07 12:57 | 51.13706 | -0.27007 | 1035 ft | 145 kts | 79° |
| 2026-05-07 12:58 | 51.13916 | -0.25510 | 859 ft | 130 kts | 78° |
| 2026-05-07 12:58 | 51.14105 | -0.24151 | 681 ft | 122 kts | 79° |
| 2026-05-07 12:58 | 51.14287 | -0.22843 | 524 ft | 120 kts | 79° |
| 2026-05-07 12:58 | 51.14465 | -0.21553 | 363 ft | 119 kts | 79° |
| 2026-05-07 12:59 | 51.14640 | -0.20264 | 232 ft | 119 kts | 78° |
| 2026-05-07 12:59 | 51.14793 | -0.19122 | 212 ft | 84 kts | 77° |
| 2026-05-07 12:59 | 51.14892 | -0.18438 | 210 ft | 53 kts | 78° |
| 2026-05-07 12:59 | 51.14980 | -0.17970 | 215 ft | 32 kts | 58° |
| 2026-05-07 13:00 | 51.15080 | -0.17762 | 214 ft | 16 kts | 28° |
| 2026-05-07 13:00 | 51.15124 | -0.17765 | 215 ft | 0 kts | 354° |
| 2026-05-07 13:01 | 51.15141 | -0.17767 | 212 ft | 5 kts | 355° |
| 2026-05-07 13:01 | 51.15199 | -0.17774 | 212 ft | 12 kts | 355° |
| 2026-05-07 13:01 | 51.15292 | -0.17796 | 218 ft | 9 kts | 347° |
| 2026-05-07 13:02 | 51.15339 | -0.17812 | 210 ft | 0 kts | 347° |